Time;durP1;ratioP1;P1;durP2;ratioP2;P2;SDS_P1;SDS_P2;PMS_P1;PMS_P2;Temp;Humidity;BMP_temperature;BMP_pressure;BME280_temperature;BME280_humidity;BME280_pressure;Samples;Min_cycle;Max_cycle;Signal;HPM_P1;HPM_P2
2023/06/28 00:01:00;;;;;;;4.18;1.77;;;;;;;;;;5044555;28;20564;-70
2023/06/28 00:03:28;;;;;;;3.47;1.85;;;;;;;;;;5044500;28;20078;-69
2023/06/28 00:05:54;;;;;;;10.35;2.28;;;;;;;;;;5044105;28;20053;-69
2023/06/28 00:08:19;;;;;;;5.70;1.70;;;;;;;;;;5044849;28;20043;-69
2023/06/28 00:10:45;;;;;;;5.35;1.90;;;;;;;;;;5043751;28;20485;-70
2023/06/28 00:13:10;;;;;;;6.97;2.10;;;;;;;;;;5044617;28;20067;-69
2023/06/28 00:15:36;;;;;;;3.25;1.80;;;;;;;;;;5042950;28;20098;-69
2023/06/28 00:18:02;;;;;;;4.28;1.60;;;;;;;;;;5044008;28;20031;-70
2023/06/28 00:20:28;;;;;;;6.70;1.95;;;;;;;;;;5043278;28;20509;-70
2023/06/28 00:22:54;;;;;;;4.25;1.95;;;;;;;;;;5043688;28;20037;-70
2023/06/28 00:25:20;;;;;;;7.55;2.00;;;;;;;;;;5042380;28;20102;-69
2023/06/28 00:27:45;;;;;;;7.63;2.00;;;;;;;;;;5043836;28;20045;-70
2023/06/28 00:30:11;;;;;;;4.25;1.90;;;;;;;;;;5044225;28;20098;-70
2023/06/28 00:32:37;;;;;;;4.93;2.30;;;;;;;;;;5044013;28;20029;-69
2023/06/28 00:35:02;;;;;;;3.65;1.88;;;;;;;;;;5042700;28;20099;-69
2023/06/28 00:37:28;;;;;;;5.28;1.77;;;;;;;;;;5052296;28;20037;-69
2023/06/28 00:39:54;;;;;;;6.07;2.08;;;;;;;;;;5036622;28;20030;-70
2023/06/28 00:42:20;;;;;;;3.67;2.10;;;;;;;;;;5044621;28;20052;-69
2023/06/28 00:44:45;;;;;;;6.90;2.15;;;;;;;;;;5047337;28;20146;-69
2023/06/28 00:47:11;;;;;;;4.28;1.73;;;;;;;;;;5047972;28;20033;-70
2023/06/28 00:49:37;;;;;;;5.03;2.10;;;;;;;;;;5047382;28;20069;-70
2023/06/28 00:52:04;;;;;;;7.28;1.98;;;;;;;;;;5047454;28;20040;-69
2023/06/28 00:54:29;;;;;;;5.13;2.10;;;;;;;;;;5047863;28;20031;-69
2023/06/28 00:56:55;;;;;;;4.43;2.15;;;;;;;;;;5046989;28;20221;-69
2023/06/28 00:59:20;;;;;;;6.75;1.80;;;;;;;;;;5048372;28;20131;-70
2023/06/28 01:01:49;;;;;;;6.05;1.77;;;;;;;;;;5047261;28;20041;-70
2023/06/28 01:04:15;;;;;;;5.28;2.13;;;;;;;;;;5079545;28;20506;-70
2023/06/28 01:06:41;;;;;;;4.10;1.90;;;;;;;;;;5047113;28;20029;-70
2023/06/28 01:09:08;;;;;;;6.72;2.20;;;;;;;;;;5047519;28;20041;-70
2023/06/28 01:11:35;;;;;;;4.90;1.95;;;;;;;;;;5041446;28;20402;-69
2023/06/28 01:14:02;;;;;;;7.20;1.80;;;;;;;;;;5047883;28;20041;-69
2023/06/28 01:16:27;;;;;;;6.47;1.85;;;;;;;;;;5046328;28;20490;-69
2023/06/28 01:18:53;;;;;;;3.58;1.85;;;;;;;;;;5049951;28;20551;-69
2023/06/28 01:21:22;;;;;;;5.97;2.20;;;;;;;;;;5053555;28;20039;-69
2023/06/28 01:23:48;;;;;;;3.67;1.70;;;;;;;;;;5048169;28;20384;-69
2023/06/28 01:26:14;;;;;;;6.55;2.05;;;;;;;;;;5046351;28;20504;-69
2023/06/28 01:28:40;;;;;;;4.35;1.83;;;;;;;;;;5045608;28;20043;-70
2023/06/28 01:31:06;;;;;;;4.97;2.00;;;;;;;;;;5033096;28;20064;-69
2023/06/28 01:33:31;;;;;;;5.68;1.70;;;;;;;;;;5028012;28;20025;-70
2023/06/28 01:35:57;;;;;;;2.13;1.73;;;;;;;;;;5045572;28;20028;-69
2023/06/28 01:38:23;;;;;;;4.07;1.88;;;;;;;;;;5047188;28;20908;-70
2023/06/28 01:40:50;;;;;;;2.83;1.90;;;;;;;;;;5046649;28;20067;-69
2023/06/28 01:43:16;;;;;;;5.65;2.30;;;;;;;;;;5046407;28;20537;-69
2023/06/28 01:45:41;;;;;;;5.18;1.83;;;;;;;;;;5046477;28;20033;-69
2023/06/28 01:48:07;;;;;;;5.07;2.13;;;;;;;;;;5047134;28;20457;-69
2023/06/28 01:50:32;;;;;;;3.70;2.10;;;;;;;;;;5046599;28;20025;-69
2023/06/28 01:53:02;;;;;;;7.28;2.05;;;;;;;;;;5044660;28;20052;-69
2023/06/28 01:55:29;;;;;;;5.32;2.00;;;;;;;;;;5043689;28;20120;-70
2023/06/28 01:57:54;;;;;;;6.05;2.28;;;;;;;;;;5046397;28;20580;-69
2023/06/28 02:00:20;;;;;;;5.30;2.05;;;;;;;;;;5046782;28;20037;-69
2023/06/28 02:02:46;;;;;;;5.53;1.90;;;;;;;;;;5046790;28;20064;-69
2023/06/28 02:05:11;;;;;;;4.40;2.20;;;;;;;;;;5046075;28;20053;-69
2023/06/28 02:07:37;;;;;;;5.70;2.20;;;;;;;;;;5045764;28;20528;-69
2023/06/28 02:10:03;;;;;;;3.92;1.85;;;;;;;;;;5046425;28;20029;-69
2023/06/28 02:12:28;;;;;;;8.45;2.65;;;;;;;;;;5045400;28;20035;-69
2023/06/28 02:14:54;;;;;;;5.20;2.53;;;;;;;;;;5046396;28;20032;-69
2023/06/28 02:17:20;;;;;;;7.28;2.30;;;;;;;;;;5046535;28;20016;-69
2023/06/28 02:19:49;;;;;;;4.80;2.25;;;;;;;;;;5046082;28;20063;-69
2023/06/28 02:22:16;;;;;;;6.53;2.78;;;;;;;;;;5045758;28;20902;-69
2023/06/28 02:24:41;;;;;;;7.15;2.63;;;;;;;;;;5045492;28;20521;-69
2023/06/28 02:27:10;;;;;;;6.90;2.03;;;;;;;;;;5046344;28;20053;-69
2023/06/28 02:29:36;;;;;;;6.70;2.05;;;;;;;;;;5045740;28;20537;-69
2023/06/28 02:32:02;;;;;;;8.23;2.42;;;;;;;;;;5046097;28;20029;-69
2023/06/28 02:34:27;;;;;;;6.38;2.00;;;;;;;;;;5045839;28;20091;-69
2023/06/28 02:36:53;;;;;;;7.20;2.50;;;;;;;;;;5034387;28;20025;-69
2023/06/28 02:39:18;;;;;;;3.88;1.90;;;;;;;;;;5046299;28;20043;-69
2023/06/28 02:41:44;;;;;;;8.82;2.10;;;;;;;;;;5046226;28;20025;-69
2023/06/28 02:44:09;;;;;;;4.10;2.30;;;;;;;;;;5046378;28;20029;-69
2023/06/28 02:46:35;;;;;;;4.05;2.05;;;;;;;;;;5049552;28;20040;-69
2023/06/28 02:49:00;;;;;;;7.60;2.17;;;;;;;;;;5052480;28;20107;-69
2023/06/28 02:51:25;;;;;;;5.28;1.92;;;;;;;;;;5045445;28;20430;-69
2023/06/28 02:53:50;;;;;;;5.43;2.00;;;;;;;;;;5044660;28;20029;-70
2023/06/28 02:56:16;;;;;;;2.83;1.70;;;;;;;;;;5044248;28;20540;-70
2023/06/28 02:58:42;;;;;;;4.20;2.00;;;;;;;;;;5043522;28;20044;-70
2023/06/28 03:01:07;;;;;;;4.60;1.88;;;;;;;;;;5044898;28;20135;-70
2023/06/28 03:03:34;;;;;;;6.95;2.22;;;;;;;;;;5044122;28;20033;-70
2023/06/28 03:05:59;;;;;;;5.13;2.30;;;;;;;;;;5042863;28;20072;-70
2023/06/28 03:08:25;;;;;;;8.13;2.00;;;;;;;;;;5045678;28;20091;-70
2023/06/28 03:10:50;;;;;;;6.35;2.10;;;;;;;;;;5041086;28;20037;-70
2023/06/28 03:13:16;;;;;;;3.28;1.90;;;;;;;;;;5036007;28;20087;-70
2023/06/28 03:15:41;;;;;;;4.28;1.77;;;;;;;;;;5044640;28;20415;-70
2023/06/28 03:18:06;;;;;;;6.80;2.30;;;;;;;;;;5040189;28;20120;-70
2023/06/28 03:20:32;;;;;;;6.05;2.40;;;;;;;;;;5045466;28;20032;-70
2023/06/28 03:22:57;;;;;;;4.80;2.40;;;;;;;;;;5044734;28;20037;-70
2023/06/28 03:25:22;;;;;;;4.35;2.40;;;;;;;;;;5044829;28;20060;-70
2023/06/28 03:27:49;;;;;;;4.38;2.10;;;;;;;;;;5045096;28;20465;-70
2023/06/28 03:30:15;;;;;;;4.70;1.73;;;;;;;;;;5044382;28;20036;-70
2023/06/28 03:32:40;;;;;;;6.25;2.00;;;;;;;;;;5045264;28;20036;-70
2023/06/28 03:35:06;;;;;;;4.88;2.10;;;;;;;;;;5041233;28;20036;-70
2023/06/28 03:37:31;;;;;;;4.95;2.00;;;;;;;;;;5036947;28;20906;-70
2023/06/28 03:39:56;;;;;;;6.05;2.30;;;;;;;;;;5044642;28;20035;-70
2023/06/28 03:42:22;;;;;;;4.38;2.10;;;;;;;;;;5044493;28;20628;-70
2023/06/28 03:44:48;;;;;;;4.38;2.20;;;;;;;;;;5044485;28;20441;-70
2023/06/28 03:47:13;;;;;;;3.65;2.15;;;;;;;;;;5043732;28;20060;-70
2023/06/28 03:49:40;;;;;;;7.90;2.80;;;;;;;;;;5043055;28;20082;-70
2023/06/28 03:52:05;;;;;;;5.13;2.50;;;;;;;;;;5044385;28;20052;-69
2023/06/28 03:54:30;;;;;;;7.80;2.58;;;;;;;;;;5044251;28;20064;-70
2023/06/28 03:56:56;;;;;;;7.10;2.72;;;;;;;;;;5044425;28;20120;-70
2023/06/28 03:59:21;;;;;;;8.70;2.40;;;;;;;;;;5044714;28;20020;-70
2023/06/28 04:01:46;;;;;;;5.70;2.50;;;;;;;;;;5043171;28;20033;-70
2023/06/28 04:04:12;;;;;;;6.05;2.45;;;;;;;;;;5043730;28;20665;-70
2023/06/28 04:06:37;;;;;;;8.80;3.10;;;;;;;;;;5044981;28;20510;-70
2023/06/28 04:09:04;;;;;;;7.82;2.75;;;;;;;;;;5045304;28;20025;-70
2023/06/28 04:11:29;;;;;;;7.22;3.30;;;;;;;;;;5038449;28;20483;-70
2023/06/28 04:13:54;;;;;;;7.13;2.50;;;;;;;;;;5045429;28;20124;-70
2023/06/28 04:16:19;;;;;;;9.60;3.03;;;;;;;;;;5047858;28;20037;-70
2023/06/28 04:18:45;;;;;;;8.13;2.78;;;;;;;;;;5047723;28;20115;-70
2023/06/28 04:21:10;;;;;;;8.80;2.95;;;;;;;;;;5048796;28;20029;-70
2023/06/28 04:23:35;;;;;;;8.35;3.00;;;;;;;;;;5048465;28;20067;-70
2023/06/28 04:26:02;;;;;;;8.18;3.15;;;;;;;;;;5048362;28;20033;-70
2023/06/28 04:28:27;;;;;;;5.60;2.97;;;;;;;;;;5080278;28;20037;-70
2023/06/28 04:30:53;;;;;;;10.00;2.83;;;;;;;;;;5048136;28;20530;-70
2023/06/28 04:33:22;;;;;;;8.38;3.03;;;;;;;;;;5047701;28;20067;-70
2023/06/28 04:35:48;;;;;;;8.75;2.80;;;;;;;;;;5040539;28;20021;-70
2023/06/28 04:38:13;;;;;;;5.95;3.15;;;;;;;;;;5046894;28;20024;-70
2023/06/28 04:40:39;;;;;;;7.20;2.88;;;;;;;;;;5047652;28;20644;-70
2023/06/28 04:43:10;;;;;;;6.85;3.33;;;;;;;;;;5046515;28;20111;-70
2023/06/28 04:45:39;;;;;;;8.57;3.03;;;;;;;;;;5047640;28;20537;-70
2023/06/28 04:48:05;;;;;;;5.47;2.65;;;;;;;;;;5047141;28;20060;-70
2023/06/28 04:50:36;;;;;;;6.65;2.72;;;;;;;;;;5034872;28;20025;-70
2023/06/28 04:53:05;;;;;;;6.05;2.67;;;;;;;;;;5048150;28;20055;-70
2023/06/28 04:55:32;;;;;;;7.00;2.95;;;;;;;;;;5047499;28;20056;-70
2023/06/28 04:58:02;;;;;;;5.43;2.70;;;;;;;;;;5047294;28;20047;-70
2023/06/28 05:00:32;;;;;;;5.43;2.65;;;;;;;;;;5047468;28;20094;-70
2023/06/28 05:03:00;;;;;;;5.30;2.60;;;;;;;;;;5047200;28;20748;-70
2023/06/28 05:05:29;;;;;;;7.55;3.13;;;;;;;;;;5046096;28;20049;-70
2023/06/28 05:07:55;;;;;;;8.52;2.95;;;;;;;;;;5047861;28;20036;-70
2023/06/28 05:10:22;;;;;;;8.57;3.15;;;;;;;;;;5079205;28;20056;-70
2023/06/28 05:12:50;;;;;;;8.88;3.00;;;;;;;;;;5035066;28;20060;-70
2023/06/28 05:15:16;;;;;;;10.55;3.15;;;;;;;;;;5046385;28;20095;-70
2023/06/28 05:17:42;;;;;;;11.00;3.42;;;;;;;;;;5047074;28;20104;-70
2023/06/28 05:20:08;;;;;;;9.40;2.95;;;;;;;;;;5075369;28;20037;-70
2023/06/28 05:22:33;;;;;;;5.43;2.40;;;;;;;;;;5033892;28;20041;-70
2023/06/28 05:24:58;;;;;;;9.18;3.15;;;;;;;;;;5046827;28;20040;-70
2023/06/28 05:27:24;;;;;;;8.07;3.15;;;;;;;;;;5046723;28;20029;-70
2023/06/28 05:29:49;;;;;;;12.70;2.97;;;;;;;;;;5046301;28;20033;-70
2023/06/28 05:32:14;;;;;;;12.10;3.50;;;;;;;;;;5047569;28;20033;-69
2023/06/28 05:34:40;;;;;;;5.40;2.78;;;;;;;;;;5047134;28;20124;-70
2023/06/28 05:37:06;;;;;;;7.32;3.15;;;;;;;;;;5047539;28;20037;-70
2023/06/28 05:39:31;;;;;;;8.27;3.30;;;;;;;;;;5049896;28;20414;-70
2023/06/28 05:41:56;;;;;;;6.10;2.80;;;;;;;;;;5052461;28;20035;-70
2023/06/28 05:44:22;;;;;;;5.80;3.10;;;;;;;;;;5048280;28;20041;-70
2023/06/28 05:46:47;;;;;;;6.22;3.25;;;;;;;;;;5047259;28;20119;-70
2023/06/28 05:49:12;;;;;;;14.10;4.32;;;;;;;;;;5045707;28;20040;-70
2023/06/28 05:51:38;;;;;;;8.02;3.67;;;;;;;;;;5046182;28;20908;-70
2023/06/28 05:54:03;;;;;;;8.63;3.20;;;;;;;;;;5047160;28;20025;-70
2023/06/28 05:56:29;;;;;;;10.27;3.53;;;;;;;;;;5046620;28;20025;-70
2023/06/28 05:58:56;;;;;;;7.28;3.33;;;;;;;;;;5039951;28;20124;-70
2023/06/28 06:01:24;;;;;;;7.57;3.55;;;;;;;;;;5029567;28;20041;-70
2023/06/28 06:03:50;;;;;;;9.13;3.55;;;;;;;;;;5040119;28;20124;-70
2023/06/28 06:06:15;;;;;;;10.18;3.33;;;;;;;;;;5031414;28;20049;-70
2023/06/28 06:08:41;;;;;;;11.43;3.30;;;;;;;;;;5046177;28;20430;-70
2023/06/28 06:11:06;;;;;;;8.93;3.35;;;;;;;;;;5046309;28;20147;-70
2023/06/28 06:13:31;;;;;;;8.02;3.55;;;;;;;;;;5046064;28;20044;-70
2023/06/28 06:15:57;;;;;;;11.02;3.85;;;;;;;;;;5045785;28;20037;-70
2023/06/28 06:18:22;;;;;;;8.35;3.38;;;;;;;;;;5045362;28;20045;-71
2023/06/28 06:20:48;;;;;;;7.90;3.75;;;;;;;;;;5045584;28;20025;-70
2023/06/28 06:23:14;;;;;;;12.88;3.63;;;;;;;;;;5045221;28;20087;-70
2023/06/28 06:25:39;;;;;;;7.60;3.70;;;;;;;;;;5045930;28;20156;-70
2023/06/28 06:28:05;;;;;;;10.10;4.07;;;;;;;;;;5045045;28;20041;-71
2023/06/28 06:30:30;;;;;;;8.40;3.92;;;;;;;;;;5044907;28;20033;-70
2023/06/28 06:32:55;;;;;;;11.82;4.60;;;;;;;;;;5043372;28;20040;-70
2023/06/28 06:35:21;;;;;;;6.95;4.20;;;;;;;;;;5045855;28;20777;-70
2023/06/28 06:37:46;;;;;;;8.23;3.78;;;;;;;;;;5044123;28;20049;-70
2023/06/28 06:40:12;;;;;;;8.38;4.07;;;;;;;;;;5044520;28;20053;-70
2023/06/28 06:42:38;;;;;;;10.98;4.25;;;;;;;;;;5042871;28;20518;-70
2023/06/28 06:45:05;;;;;;;9.10;4.03;;;;;;;;;;5039435;28;20551;-70
2023/06/28 06:47:30;;;;;;;8.25;3.97;;;;;;;;;;5043692;28;20027;-71
2023/06/28 06:49:55;;;;;;;11.68;4.10;;;;;;;;;;5043364;28;20041;-70
2023/06/28 06:52:21;;;;;;;7.10;4.10;;;;;;;;;;5042219;28;20068;-70
2023/06/28 06:54:46;;;;;;;10.48;4.55;;;;;;;;;;5043272;28;20033;-70
2023/06/28 06:57:11;;;;;;;11.52;4.55;;;;;;;;;;5045202;28;20473;-71
2023/06/28 06:59:37;;;;;;;10.68;4.32;;;;;;;;;;5044972;28;20017;-70
2023/06/28 07:02:03;;;;;;;9.25;4.22;;;;;;;;;;5037003;28;20591;-70
2023/06/28 07:04:28;;;;;;;9.18;4.20;;;;;;;;;;5034277;28;20080;-70
2023/06/28 07:06:55;;;;;;;10.50;3.80;;;;;;;;;;5040802;28;20426;-70
2023/06/28 07:09:20;;;;;;;10.48;3.80;;;;;;;;;;5044789;28;20846;-70
2023/06/28 07:11:46;;;;;;;9.13;3.75;;;;;;;;;;5034438;28;20040;-70
2023/06/28 07:14:12;;;;;;;9.02;3.90;;;;;;;;;;5042842;28;20029;-70
2023/06/28 07:16:37;;;;;;;10.75;3.63;;;;;;;;;;5042520;28;20037;-70
2023/06/28 07:19:03;;;;;;;12.20;4.18;;;;;;;;;;5029130;28;20025;-70
2023/06/28 07:21:28;;;;;;;10.80;4.80;;;;;;;;;;5044481;28;20028;-70
2023/06/28 07:23:54;;;;;;;10.52;4.60;;;;;;;;;;5043346;28;20104;-70
2023/06/28 07:26:20;;;;;;;16.48;5.20;;;;;;;;;;5038599;28;20568;-70
2023/06/28 07:28:46;;;;;;;12.45;4.57;;;;;;;;;;5042393;28;20033;-70
2023/06/28 07:31:11;;;;;;;13.13;5.10;;;;;;;;;;5043709;28;20708;-70
2023/06/28 07:33:36;;;;;;;10.52;4.72;;;;;;;;;;5042923;28;20091;-70
2023/06/28 07:36:02;;;;;;;9.93;3.80;;;;;;;;;;5033311;28;20028;-70
2023/06/28 07:38:27;;;;;;;12.13;4.72;;;;;;;;;;5044182;28;20678;-70
2023/06/28 07:40:53;;;;;;;10.82;4.53;;;;;;;;;;5044015;28;20037;-70
2023/06/28 07:43:19;;;;;;;9.55;4.40;;;;;;;;;;5043550;28;20037;-70
2023/06/28 07:45:45;;;;;;;10.40;4.57;;;;;;;;;;5044500;28;20029;-70
2023/06/28 07:48:10;;;;;;;10.30;4.60;;;;;;;;;;5041433;28;20033;-70
2023/06/28 07:50:36;;;;;;;11.70;4.88;;;;;;;;;;5044749;28;20033;-70
2023/06/28 07:53:02;;;;;;;10.48;5.15;;;;;;;;;;5044104;28;20052;-70
2023/06/28 07:55:28;;;;;;;12.50;5.45;;;;;;;;;;5041921;28;20065;-71
2023/06/28 07:57:55;;;;;;;13.25;5.30;;;;;;;;;;5023970;28;20560;-71
2023/06/28 08:00:20;;;;;;;11.40;5.43;;;;;;;;;;5032970;28;20045;-71
2023/06/28 08:02:45;;;;;;;11.43;5.22;;;;;;;;;;5030895;28;20055;-70
2023/06/28 08:05:11;;;;;;;13.38;5.78;;;;;;;;;;5031560;28;20183;-70
2023/06/28 08:07:36;;;;;;;11.65;5.80;;;;;;;;;;5042436;28;20045;-70
2023/06/28 08:10:01;;;;;;;10.95;5.32;;;;;;;;;;5044445;28;20111;-70
2023/06/28 08:12:27;;;;;;;12.85;5.30;;;;;;;;;;5038574;28;20028;-70
2023/06/28 08:14:52;;;;;;;16.73;5.78;;;;;;;;;;5032180;28;20427;-70
2023/06/28 08:17:17;;;;;;;10.32;5.60;;;;;;;;;;5041004;28;20033;-70
2023/06/28 08:19:43;;;;;;;14.77;5.75;;;;;;;;;;5045463;28;20041;-70
2023/06/28 08:22:08;;;;;;;12.65;5.82;;;;;;;;;;5041972;28;20688;-70
2023/06/28 08:24:33;;;;;;;12.45;5.82;;;;;;;;;;5043382;28;20041;-70
2023/06/28 08:26:59;;;;;;;11.57;5.90;;;;;;;;;;5043300;28;20052;-70
2023/06/28 08:29:25;;;;;;;12.73;6.70;;;;;;;;;;5044394;28;20095;-70
2023/06/28 08:31:50;;;;;;;19.17;6.85;;;;;;;;;;5043184;28;20055;-70
2023/06/28 08:34:16;;;;;;;12.73;6.32;;;;;;;;;;5051691;28;20037;-70
2023/06/28 08:36:42;;;;;;;12.48;5.80;;;;;;;;;;5045946;28;20111;-70
2023/06/28 08:39:07;;;;;;;11.40;5.40;;;;;;;;;;5045117;28;20137;-70
2023/06/28 08:41:34;;;;;;;14.02;5.80;;;;;;;;;;5044609;28;20059;-70
2023/06/28 08:44:01;;;;;;;10.32;5.55;;;;;;;;;;5044697;28;20141;-70
2023/06/28 08:46:29;;;;;;;13.88;5.97;;;;;;;;;;5045167;28;20072;-70
2023/06/28 08:48:55;;;;;;;12.77;6.57;;;;;;;;;;5073250;28;20075;-70
2023/06/28 08:51:20;;;;;;;13.85;5.85;;;;;;;;;;5034828;28;20041;-70
2023/06/28 08:53:47;;;;;;;13.15;5.90;;;;;;;;;;5042194;28;20041;-70
2023/06/28 08:56:13;;;;;;;13.80;6.18;;;;;;;;;;5045535;28;20033;-70
2023/06/28 08:58:41;;;;;;;18.00;9.52;;;;;;;;;;5045005;28;20805;-70
2023/06/28 09:01:08;;;;;;;16.33;6.18;;;;;;;;;;5044791;28;20041;-70
2023/06/28 09:03:39;;;;;;;12.40;6.78;;;;;;;;;;5044565;28;20029;-70
2023/06/28 09:06:04;;;;;;;14.77;6.57;;;;;;;;;;5045113;28;20565;-70
2023/06/28 09:08:31;;;;;;;11.43;5.68;;;;;;;;;;5045578;28;20029;-70
2023/06/28 09:10:58;;;;;;;12.93;6.57;;;;;;;;;;5047404;28;20033;-70
2023/06/28 09:13:23;;;;;;;14.15;6.72;;;;;;;;;;5046875;28;20122;-70
2023/06/28 09:15:49;;;;;;;16.30;7.25;;;;;;;;;;5034730;28;20498;-70
2023/06/28 09:18:15;;;;;;;14.48;6.55;;;;;;;;;;5048492;28;20040;-70
2023/06/28 09:20:48;;;;;;;14.70;7.35;;;;;;;;;;5048490;28;20029;-70
2023/06/28 09:23:21;;;;;;;16.02;7.07;;;;;;;;;;5047026;28;20041;-70
2023/06/28 09:25:49;;;;;;;13.70;7.18;;;;;;;;;;5048097;28;20048;-70
2023/06/28 09:28:15;;;;;;;15.98;6.70;;;;;;;;;;5048355;28;20111;-70
2023/06/28 09:30:40;;;;;;;13.45;6.03;;;;;;;;;;5045845;28;20063;-70
2023/06/28 09:33:05;;;;;;;13.57;6.95;;;;;;;;;;5047279;28;20044;-70
2023/06/28 09:35:31;;;;;;;16.70;6.97;;;;;;;;;;5048040;28;20044;-70
2023/06/28 09:37:58;;;;;;;15.60;6.55;;;;;;;;;;5045639;28;20538;-70
2023/06/28 09:40:24;;;;;;;16.45;7.47;;;;;;;;;;5048028;28;20052;-70
2023/06/28 09:42:50;;;;;;;17.38;7.70;;;;;;;;;;5048753;28;20025;-70
2023/06/28 09:45:27;;;;;;;16.33;8.07;;;;;;;;;;5049634;28;20021;-70
2023/06/28 09:48:01;;;;;;;18.13;8.30;;;;;;;;;;5045931;28;20071;-70
2023/06/28 09:50:45;;;;;;;15.18;7.60;;;;;;;;;;5053987;28;20345;-70
2023/06/28 09:53:12;;;;;;;16.38;7.53;;;;;;;;;;5039525;28;20045;-70
2023/06/28 09:55:39;;;;;;;17.08;8.52;;;;;;;;;;5037880;28;20053;-70
2023/06/28 09:58:08;;;;;;;18.63;8.20;;;;;;;;;;5042704;28;20067;-70
2023/06/28 10:00:36;;;;;;;14.25;8.07;;;;;;;;;;5049880;28;20021;-70
2023/06/28 10:03:06;;;;;;;17.27;8.52;;;;;;;;;;5049679;28;20127;-70
2023/06/28 10:05:33;;;;;;;16.42;8.70;;;;;;;;;;5044197;28;20124;-70
2023/06/28 10:08:01;;;;;;;18.70;7.90;;;;;;;;;;5046919;28;20506;-70
2023/06/28 10:10:28;;;;;;;21.45;8.43;;;;;;;;;;5046928;28;20037;-70
2023/06/28 10:12:57;;;;;;;22.45;9.52;;;;;;;;;;5045235;28;20032;-70
2023/06/28 10:15:24;;;;;;;17.83;8.80;;;;;;;;;;5046019;28;20025;-69
2023/06/28 10:17:50;;;;;;;18.13;8.30;;;;;;;;;;5045286;28;20083;-70
2023/06/28 10:20:17;;;;;;;20.67;8.57;;;;;;;;;;5045353;28;20709;-70
2023/06/28 10:22:43;;;;;;;19.83;8.27;;;;;;;;;;5029473;28;20079;-70
2023/06/28 10:25:09;;;;;;;17.70;8.15;;;;;;;;;;5034764;28;20168;-70
2023/06/28 10:27:36;;;;;;;15.38;7.65;;;;;;;;;;5031948;28;20107;-70
2023/06/28 10:30:02;;;;;;;18.65;8.25;;;;;;;;;;5039420;28;20095;-70
2023/06/28 10:32:28;;;;;;;13.10;7.90;;;;;;;;;;5053616;28;20706;-69
2023/06/28 10:34:56;;;;;;;16.42;7.80;;;;;;;;;;5054827;28;20036;-70
2023/06/28 10:37:22;;;;;;;16.88;7.18;;;;;;;;;;5056796;28;20028;-70
2023/06/28 10:39:52;;;;;;;14.25;7.43;;;;;;;;;;5081522;28;20301;-70
2023/06/28 10:42:19;;;;;;;16.77;7.45;;;;;;;;;;5056039;28;20115;-70
2023/06/28 10:44:51;;;;;;;14.60;7.50;;;;;;;;;;5054307;28;20055;-70
2023/06/28 10:47:17;;;;;;;17.60;6.90;;;;;;;;;;5048223;28;20071;-70
2023/06/28 10:49:42;;;;;;;16.67;7.20;;;;;;;;;;5046487;28;20469;-70
2023/06/28 10:52:17;;;;;;;19.75;7.22;;;;;;;;;;5046152;28;20123;-70
2023/06/28 10:54:42;;;;;;;13.90;7.15;;;;;;;;;;5046578;28;20085;-70
2023/06/28 10:57:11;;;;;;;17.55;7.57;;;;;;;;;;5047057;28;20119;-70
2023/06/28 10:59:41;;;;;;;18.73;7.57;;;;;;;;;;5046161;28;20037;-69
2023/06/28 11:02:06;;;;;;;15.38;7.15;;;;;;;;;;5039998;28;20064;-69
2023/06/28 11:04:32;;;;;;;15.88;7.68;;;;;;;;;;5042274;28;20589;-70
2023/06/28 11:07:03;;;;;;;16.27;8.07;;;;;;;;;;5040906;28;20063;-70
2023/06/28 11:09:29;;;;;;;15.40;8.02;;;;;;;;;;5044300;28;20077;-70
2023/06/28 11:11:57;;;;;;;15.20;8.05;;;;;;;;;;5043674;28;20607;-70
2023/06/28 11:14:30;;;;;;;13.30;7.28;;;;;;;;;;5044034;28;20037;-70
2023/06/28 11:17:02;;;;;;;15.75;7.90;;;;;;;;;;5042784;28;20868;-70
2023/06/28 11:19:28;;;;;;;16.15;7.70;;;;;;;;;;5043189;28;20415;-70
2023/06/28 11:22:00;;;;;;;12.75;7.68;;;;;;;;;;5043921;28;20711;-70
2023/06/28 11:24:37;;;;;;;15.85;7.80;;;;;;;;;;5045914;28;20040;-70
2023/06/28 11:27:13;;;;;;;17.70;8.85;;;;;;;;;;5049324;28;20581;-69
2023/06/28 11:29:58;;;;;;;13.13;7.45;;;;;;;;;;5047047;28;20057;-69
2023/06/28 11:32:25;;;;;;;16.45;7.68;;;;;;;;;;5044387;28;20148;-69
2023/06/28 11:34:53;;;;;;;17.38;7.82;;;;;;;;;;5041374;28;20053;-70
2023/06/28 11:37:19;;;;;;;14.70;7.57;;;;;;;;;;5041987;28;20075;-70
2023/06/28 11:39:46;;;;;;;16.55;7.90;;;;;;;;;;5042378;28;20546;-70
2023/06/28 11:42:14;;;;;;;14.38;7.47;;;;;;;;;;5043734;28;20568;-70
2023/06/28 11:44:48;;;;;;;14.73;8.20;;;;;;;;;;5043050;28;20530;-70
2023/06/28 11:47:17;;;;;;;17.30;7.43;;;;;;;;;;5043736;28;20041;-70
2023/06/28 11:49:43;;;;;;;14.48;8.05;;;;;;;;;;5037801;28;20041;-70
2023/06/28 11:52:09;;;;;;;18.23;7.57;;;;;;;;;;5037683;28;20095;-70
2023/06/28 11:54:34;;;;;;;14.02;7.43;;;;;;;;;;5042600;28;20016;-70
2023/06/28 11:57:01;;;;;;;16.80;7.68;;;;;;;;;;5027791;28;20091;-70
2023/06/28 11:59:29;;;;;;;18.13;8.52;;;;;;;;;;5034985;28;20041;-70
2023/06/28 12:02:05;;;;;;;14.30;7.45;;;;;;;;;;5034658;28;20612;-70
2023/06/28 12:04:31;;;;;;;15.60;8.27;;;;;;;;;;5026223;28;20055;-71
2023/06/28 12:06:59;;;;;;;17.75;8.05;;;;;;;;;;5062236;28;20029;-70
2023/06/28 12:09:27;;;;;;;16.33;8.38;;;;;;;;;;5026388;28;20040;-70
2023/06/28 12:11:59;;;;;;;14.90;7.97;;;;;;;;;;5043918;28;20044;-71
2023/06/28 12:14:29;;;;;;;15.05;8.13;;;;;;;;;;5031465;28;20037;-70
2023/06/28 12:16:55;;;;;;;15.23;8.75;;;;;;;;;;5044205;28;20029;-70
2023/06/28 12:19:26;;;;;;;15.23;8.25;;;;;;;;;;5044052;28;20534;-70
2023/06/28 12:21:53;;;;;;;17.45;8.80;;;;;;;;;;5042374;28;20044;-70
2023/06/28 12:24:24;;;;;;;16.23;9.07;;;;;;;;;;5044019;28;20414;-71
2023/06/28 12:26:58;;;;;;;15.05;8.75;;;;;;;;;;5043132;28;20091;-70
2023/06/28 12:29:26;;;;;;;19.63;9.30;;;;;;;;;;5076387;28;20510;-70
2023/06/28 12:31:53;;;;;;;16.08;8.02;;;;;;;;;;5043515;28;20689;-70
2023/06/28 12:34:28;;;;;;;14.90;8.05;;;;;;;;;;5044090;28;20040;-70
2023/06/28 12:36:55;;;;;;;14.63;8.32;;;;;;;;;;5063258;28;20475;-70
2023/06/28 12:39:25;;;;;;;19.83;8.68;;;;;;;;;;5047752;28;20051;-70
2023/06/28 12:42:04;;;;;;;17.02;8.75;;;;;;;;;;5045494;28;20021;-70
2023/06/28 12:44:30;;;;;;;17.63;8.80;;;;;;;;;;5048355;28;20064;-70
2023/06/28 12:46:56;;;;;;;13.90;7.43;;;;;;;;;;5047976;28;20036;-69
2023/06/28 12:49:22;;;;;;;17.42;8.52;;;;;;;;;;5047310;28;20029;-70
2023/06/28 12:51:48;;;;;;;17.33;8.27;;;;;;;;;;5050008;28;20029;-70
2023/06/28 12:54:13;;;;;;;18.25;8.25;;;;;;;;;;5052374;28;20024;-70
2023/06/28 12:56:40;;;;;;;14.50;7.45;;;;;;;;;;5049306;28;20083;-70
2023/06/28 12:59:05;;;;;;;16.52;8.57;;;;;;;;;;5048176;28;20430;-70
2023/06/28 13:01:30;;;;;;;13.80;8.07;;;;;;;;;;5047712;28;20033;-70
2023/06/28 13:03:56;;;;;;;17.05;7.95;;;;;;;;;;5047364;28;20063;-70
2023/06/28 13:06:22;;;;;;;15.43;8.10;;;;;;;;;;5046274;28;20179;-70
2023/06/28 13:08:47;;;;;;;16.67;7.35;;;;;;;;;;5045557;28;20036;-70
2023/06/28 13:11:13;;;;;;;15.93;8.15;;;;;;;;;;5028948;28;20029;-70
2023/06/28 13:13:39;;;;;;;16.73;9.60;;;;;;;;;;5032892;28;20029;-70
2023/06/28 13:16:05;;;;;;;18.08;8.50;;;;;;;;;;5047357;28;20037;-70
2023/06/28 13:18:31;;;;;;;13.32;7.90;;;;;;;;;;5047890;28;20076;-70
2023/06/28 13:20:57;;;;;;;20.02;8.20;;;;;;;;;;5040959;28;20065;-70
2023/06/28 13:23:22;;;;;;;15.70;7.95;;;;;;;;;;5040925;28;20103;-70
2023/06/28 13:25:47;;;;;;;18.27;8.30;;;;;;;;;;5045645;28;20115;-70
2023/06/28 13:28:13;;;;;;;18.05;7.72;;;;;;;;;;5047016;28;20044;-70
2023/06/28 13:30:38;;;;;;;14.65;8.18;;;;;;;;;;5047611;28;20068;-70
2023/06/28 13:33:03;;;;;;;14.68;8.13;;;;;;;;;;5047022;28;20032;-70
2023/06/28 13:35:29;;;;;;;14.68;8.43;;;;;;;;;;5045908;28;20044;-70
2023/06/28 13:37:54;;;;;;;13.80;8.23;;;;;;;;;;5047547;28;20055;-70
2023/06/28 13:40:19;;;;;;;15.20;8.55;;;;;;;;;;5047258;28;20408;-70
2023/06/28 13:42:46;;;;;;;14.48;8.38;;;;;;;;;;5045806;28;20429;-70
2023/06/28 13:45:12;;;;;;;16.77;8.80;;;;;;;;;;5047307;28;20017;-70
2023/06/28 13:47:37;;;;;;;19.80;8.45;;;;;;;;;;5046912;28;20514;-70
2023/06/28 13:50:04;;;;;;;16.90;8.23;;;;;;;;;;5046623;28;20064;-70
2023/06/28 13:52:29;;;;;;;19.30;8.45;;;;;;;;;;5046595;28;20037;-70
2023/06/28 13:54:55;;;;;;;17.80;8.68;;;;;;;;;;5046766;28;20029;-70
2023/06/28 13:57:22;;;;;;;18.38;9.73;;;;;;;;;;5047716;28;20029;-70
2023/06/28 13:59:48;;;;;;;18.50;9.05;;;;;;;;;;5046875;28;20059;-70
2023/06/28 14:02:14;;;;;;;16.45;9.25;;;;;;;;;;5047051;28;20653;-70
2023/06/28 14:04:39;;;;;;;19.23;9.10;;;;;;;;;;5044583;28;20124;-70
2023/06/28 14:07:05;;;;;;;19.17;9.70;;;;;;;;;;5046288;28;20032;-70
2023/06/28 14:09:30;;;;;;;16.95;9.77;;;;;;;;;;5047911;28;20024;-70
2023/06/28 14:11:55;;;;;;;17.00;8.70;;;;;;;;;;5046616;28;20025;-70
2023/06/28 14:14:21;;;;;;;19.70;9.10;;;;;;;;;;5047176;28;20090;-70
2023/06/28 14:16:46;;;;;;;17.23;8.30;;;;;;;;;;5046196;28;20075;-70
2023/06/28 14:19:11;;;;;;;18.70;9.48;;;;;;;;;;5049145;28;20035;-69
2023/06/28 14:21:37;;;;;;;19.40;10.02;;;;;;;;;;5039190;28;20013;-71
2023/06/28 14:24:02;;;;;;;19.38;9.52;;;;;;;;;;5047315;28;20033;-70
2023/06/28 14:26:28;;;;;;;20.50;9.02;;;;;;;;;;5045687;28;20513;-70
2023/06/28 14:28:53;;;;;;;17.17;9.00;;;;;;;;;;5047300;28;20033;-70
2023/06/28 14:31:18;;;;;;;17.33;9.15;;;;;;;;;;5045081;28;20481;-71